Weatherby Lake, Missouri
Current Conditions -  °F | °C
As of 3:53 AM on Thursday 29 Jan 2015 (Local Time) from KMCI Reporting Station
Overcast Overcast  
Wind Chill: 31°   Ceiling: 1600
Heat Index: 41°   Visibility: 9mi
Dew Point: 35°   Wind: 23mph
Humidity: 79%   Direction: 320°NW
Pressure: 30.06"   Gusts: 33mph
Location:  39.2806°N, 94.7299°W
Report Text: KMCI 290953Z 32020G29KT 9SM BKN016 OVC030 05/02 A3006 RMK AO2 PK WND 32033/0932 PRESRR SLP178 T00500017
Loading
Personal Weather Stations






























Interactive Weather Map New forecast layout! Learn more

10-Day Weather Forecast

Advertisements
Track Severe Weather on mobile